Terminal Aerodrome Forecast
Issued by NWS

Home | Current Version | Previous Version | Graphics & Text | Print | Product List | Glossary On
Versions: 1 2 3 4 5 6 7 8 9 10 11 12 13 14 15 16 17 18
020
FTUS43 KMPX 051123
TAFAXN
TAF
KAXN 051123Z 0512/0612 13008KT 6SM BR BKN150
     FM051500 15012G20KT P6SM OVC100
     FM060100 24017G25KT P6SM OVC025
     FM060600 26018G27KT P6SM OVC015=

USA.gov is the U.S. government's official web portal to all federal, state and local government web resources and services.